createdAt,value
2018-06-04T00:43:32.202Z,0
2018-06-04T00:44:12.612Z,0
2018-06-04T00:44:52.992Z,0
2018-06-04T00:45:33.413Z,0
2018-06-04T00:46:13.832Z,0
2018-06-04T00:46:54.217Z,0
2018-06-04T00:47:34.614Z,0
2018-06-04T00:48:15.036Z,0
2018-06-04T00:48:55.454Z,0
2018-06-04T00:49:35.851Z,0
2018-06-04T00:50:16.242Z,0
2018-06-04T00:50:56.705Z,0
2018-06-04T00:51:37.037Z,0
2018-06-04T00:52:17.429Z,0
2018-06-04T00:52:57.857Z,0
2018-06-04T00:53:38.250Z,0
2018-06-04T00:54:18.676Z,0
2018-06-04T00:54:59.069Z,0
2018-06-04T00:55:39.509Z,0
2018-06-04T00:56:19.904Z,0
2018-06-04T00:57:00.346Z,0
2018-06-04T00:57:40.772Z,0
2018-06-04T00:58:21.122Z,0
2018-06-04T00:59:01.528Z,0
2018-06-04T00:59:41.947Z,0
2018-06-04T01:00:22.343Z,0
2018-06-04T01:01:02.715Z,0
2018-06-04T01:01:43.105Z,0
2018-06-04T01:02:23.516Z,0
2018-06-04T01:03:03.884Z,0
2018-06-04T01:03:44.255Z,0
2018-06-04T01:04:24.655Z,0
2018-06-04T01:05:05.107Z,0
2018-06-04T01:05:45.528Z,0
2018-06-04T01:06:25.892Z,0
2018-06-04T01:07:06.293Z,0
2018-06-04T01:07:46.720Z,0
2018-06-04T01:08:27.127Z,0
2018-06-04T01:09:07.543Z,0
2018-06-04T01:09:47.935Z,0
2018-06-04T01:10:28.388Z,0
2018-06-04T01:11:08.772Z,0
2018-06-04T01:11:49.192Z,0
2018-06-04T01:12:29.597Z,0
2018-06-04T01:13:10.073Z,0
2018-06-04T01:13:50.445Z,0
2018-06-04T01:14:30.845Z,0
2018-06-04T01:15:11.267Z,0
2018-06-04T01:15:51.636Z,0
2018-06-04T01:16:32.041Z,0
2018-06-04T01:17:12.434Z,0
2018-06-04T01:17:52.871Z,0
2018-06-04T01:18:33.339Z,0
2018-06-04T01:19:13.712Z,0
2018-06-04T01:19:54.137Z,0
2018-06-04T01:20:34.549Z,0
2018-06-04T01:21:14.913Z,0
2018-06-04T01:21:55.328Z,0
2018-06-04T01:22:35.723Z,0
2018-06-04T01:23:16.093Z,0
2018-06-04T01:23:56.504Z,0
2018-06-04T01:24:36.880Z,0
2018-06-04T01:25:17.342Z,0
2018-06-04T01:25:57.688Z,0
2018-06-04T01:26:38.080Z,0
2018-06-04T01:27:18.501Z,0
2018-06-04T01:27:58.929Z,0
2018-06-04T01:28:39.318Z,0
2018-06-04T01:29:19.781Z,0
2018-06-04T01:30:00.121Z,0
2018-06-04T01:30:40.524Z,0
2018-06-04T01:31:20.927Z,0
2018-06-04T01:32:01.359Z,0
2018-06-04T01:32:41.791Z,0
2018-06-04T01:33:22.212Z,0
2018-06-04T01:34:02.660Z,0
2018-06-04T01:34:43.065Z,0
2018-06-04T01:35:23.460Z,0
2018-06-04T01:36:03.870Z,0
2018-06-04T01:36:44.289Z,0
2018-06-04T01:37:24.689Z,0
2018-06-04T01:38:05.090Z,0
2018-06-04T01:38:45.515Z,0
2018-06-04T01:39:25.921Z,0
2018-06-04T01:40:06.307Z,0
2018-06-04T01:40:46.726Z,0
2018-06-04T01:41:27.124Z,0
2018-06-04T01:42:07.531Z,0
2018-06-04T01:42:47.964Z,0
2018-06-04T01:43:28.342Z,0
2018-06-04T01:44:08.767Z,0
2018-06-04T01:44:49.137Z,0
2018-06-04T01:45:29.528Z,0
2018-06-04T01:46:09.972Z,0
2018-06-04T01:46:50.312Z,0
2018-06-04T01:47:30.724Z,0
2018-06-04T01:48:11.116Z,0
2018-06-04T01:48:51.506Z,0
2018-06-04T01:49:31.900Z,0
2018-06-04T01:50:12.362Z,0
2018-06-04T01:50:52.727Z,0
2018-06-04T01:51:33.117Z,0
2018-06-04T01:52:13.531Z,0
2018-06-04T01:52:53.931Z,0
2018-06-04T01:53:34.335Z,0
2018-06-04T01:54:14.746Z,0
2018-06-04T01:54:55.162Z,0
2018-06-04T01:55:35.606Z,0
2018-06-04T01:56:15.982Z,0
2018-06-04T01:56:56.372Z,0
2018-06-04T01:57:36.778Z,0
2018-06-04T01:58:17.227Z,0
2018-06-04T01:58:57.620Z,0
2018-06-04T01:59:37.999Z,0
2018-06-04T02:00:18.439Z,0
2018-06-04T02:00:58.768Z,0
2018-06-04T02:01:39.219Z,0
2018-06-04T02:02:19.595Z,0
2018-06-04T02:03:00.032Z,0
2018-06-04T02:03:40.404Z,0
2018-06-04T02:04:20.817Z,0
2018-06-04T02:05:01.199Z,0
2018-06-04T02:05:41.643Z,0
2018-06-04T02:06:22.048Z,0
2018-06-04T02:07:02.421Z,0
2018-06-04T02:07:42.845Z,0
2018-06-04T02:08:23.299Z,0
2018-06-04T02:09:03.683Z,0
2018-06-04T02:09:44.086Z,0
2018-06-04T02:10:24.518Z,0
2018-06-04T02:11:04.916Z,0
2018-06-04T02:11:45.268Z,0
2018-06-04T02:12:25.687Z,0
2018-06-04T02:13:06.134Z,0
2018-06-04T02:13:46.511Z,0
2018-06-04T02:14:26.929Z,0
2018-06-04T02:15:07.336Z,0
2018-06-04T02:15:47.817Z,0
2018-06-04T02:16:28.192Z,0
2018-06-04T02:17:08.590Z,0
2018-06-04T02:17:49.001Z,0
2018-06-04T02:18:29.362Z,0
2018-06-04T02:19:09.812Z,0
2018-06-04T02:19:50.186Z,0
2018-06-04T02:20:30.594Z,0
2018-06-04T02:21:11.009Z,0
2018-06-04T02:21:51.355Z,0
2018-06-04T02:22:31.768Z,0
2018-06-04T02:23:12.256Z,0
2018-06-04T02:23:52.614Z,0
2018-06-04T02:24:32.991Z,0
2018-06-04T02:25:13.427Z,0
2018-06-04T02:25:53.824Z,0
2018-06-04T02:26:34.236Z,0
2018-06-04T02:27:14.640Z,0
2018-06-04T02:27:55.060Z,0
2018-06-04T02:28:35.566Z,0
2018-06-04T02:29:15.957Z,0
2018-06-04T02:29:56.393Z,0
2018-06-04T02:30:36.756Z,0
2018-06-04T02:31:17.165Z,0
2018-06-04T02:31:57.580Z,0
2018-06-04T02:32:37.954Z,0
2018-06-04T02:33:18.371Z,0
2018-06-04T02:33:58.777Z,0
2018-06-04T02:34:39.190Z,0
2018-06-04T02:35:19.607Z,0
2018-06-04T02:35:59.969Z,0
2018-06-04T02:36:40.434Z,0
2018-06-04T02:37:20.805Z,0
2018-06-04T02:38:01.233Z,0
2018-06-04T02:38:41.650Z,0
2018-06-04T02:39:22.046Z,0
2018-06-04T02:40:02.476Z,0
2018-06-04T02:40:42.860Z,0
2018-06-04T02:41:23.244Z,0
2018-06-04T02:42:03.660Z,0
2018-06-04T02:42:44.081Z,0
2018-06-04T02:43:24.507Z,0
2018-06-04T02:44:04.904Z,0
2018-06-04T02:44:45.330Z,0
2018-06-04T02:45:25.681Z,4
2018-06-04T02:46:06.106Z,4
2018-06-04T02:46:46.484Z,0
2018-06-04T02:47:26.893Z,0
2018-06-04T02:48:07.318Z,0
2018-06-04T02:48:47.682Z,0
2018-06-04T02:49:28.118Z,0
2018-06-04T02:50:08.567Z,4
2018-06-04T02:50:48.931Z,4
2018-06-04T02:51:29.338Z,0
2018-06-04T02:52:09.726Z,0
2018-06-04T02:52:50.164Z,4
2018-06-04T02:53:30.589Z,4
2018-06-04T02:54:11.023Z,0
2018-06-04T02:54:51.439Z,4
2018-06-04T02:55:31.830Z,4
2018-06-04T02:56:12.245Z,4
2018-06-04T02:56:52.617Z,8
2018-06-04T02:57:33.007Z,4
2018-06-04T02:58:13.446Z,4
2018-06-04T02:58:53.837Z,4
2018-06-04T02:59:34.237Z,4
2018-06-04T03:00:14.699Z,8
2018-06-04T03:00:55.064Z,8
2018-06-04T03:01:35.470Z,8
2018-06-04T03:02:15.850Z,8
2018-06-04T03:02:56.281Z,12
2018-06-04T03:03:36.644Z,12
2018-06-04T03:04:17.106Z,12
2018-06-04T03:04:57.516Z,8
2018-06-04T03:05:37.901Z,12
2018-06-04T03:06:18.325Z,12
2018-06-04T03:06:58.717Z,16
2018-06-04T03:07:39.110Z,16
2018-06-04T03:08:19.547Z,16
2018-06-04T03:08:59.968Z,20
2018-06-04T03:09:40.325Z,20
2018-06-04T03:10:20.745Z,20
2018-06-04T03:11:01.114Z,20
2018-06-04T03:11:41.537Z,24
2018-06-04T03:12:21.933Z,24
2018-06-04T03:13:02.321Z,28
2018-06-04T03:13:42.721Z,28
2018-06-04T03:14:23.149Z,32
2018-06-04T03:15:03.528Z,32
2018-06-04T03:15:43.967Z,32
2018-06-04T03:16:24.361Z,32
2018-06-04T03:17:04.751Z,40
2018-06-04T03:17:45.193Z,40
2018-06-04T03:18:25.561Z,44
2018-06-04T03:19:05.993Z,44
2018-06-04T03:19:46.384Z,48
2018-06-04T03:20:26.734Z,52
2018-06-04T03:21:07.173Z,56
2018-06-04T03:21:47.600Z,56
2018-06-04T03:22:28.040Z,60
2018-06-04T03:23:08.410Z,64
2018-06-04T03:23:48.846Z,68
2018-06-04T03:24:29.219Z,68
2018-06-04T03:25:09.612Z,72
2018-06-04T03:25:50.031Z,80
2018-06-04T03:26:30.469Z,84
2018-06-04T03:27:10.871Z,84
2018-06-04T03:27:51.278Z,88
2018-06-04T03:28:31.689Z,92
2018-06-04T03:29:12.100Z,96
2018-06-04T03:29:52.558Z,100
2018-06-04T03:30:32.943Z,108
2018-06-04T03:31:13.336Z,112
2018-06-04T03:31:53.745Z,120
2018-06-04T03:32:34.156Z,124
2018-06-04T03:33:14.523Z,132
2018-06-04T03:33:54.929Z,136
2018-06-04T03:34:35.369Z,144
2018-06-04T03:35:15.752Z,148
2018-06-04T03:35:56.197Z,156
2018-06-04T03:36:36.560Z,160
2018-06-04T03:37:16.939Z,168
2018-06-04T03:37:57.337Z,176
2018-06-04T03:38:37.802Z,184
2018-06-04T03:39:18.212Z,192
2018-06-04T03:39:58.613Z,196
2018-06-04T03:40:39.005Z,208
2018-06-04T03:41:19.360Z,220
2018-06-04T03:41:59.789Z,228
2018-06-04T03:42:40.186Z,240
2018-06-04T03:43:20.607Z,248
2018-06-04T03:44:00.995Z,260
2018-06-04T03:44:41.381Z,272
2018-06-04T03:45:21.836Z,280
2018-06-04T03:46:02.205Z,292
2018-06-04T03:46:42.574Z,308
2018-06-04T03:47:23.055Z,320
2018-06-04T03:48:03.507Z,336
2018-06-04T03:48:43.892Z,348
2018-06-04T03:49:24.290Z,364
2018-06-04T03:50:04.709Z,380
2018-06-04T03:50:45.106Z,392
2018-06-04T03:51:25.523Z,408
2018-06-04T03:52:05.946Z,424
2018-06-04T03:52:46.296Z,436
2018-06-04T03:53:26.706Z,448
2018-06-04T03:54:07.121Z,464
2018-06-04T03:54:47.522Z,480
2018-06-04T03:55:27.921Z,496
2018-06-04T03:56:08.326Z,512
2018-06-04T03:56:48.846Z,532
2018-06-04T03:57:29.230Z,548
2018-06-04T03:58:09.618Z,568
2018-06-04T03:58:50.025Z,588
2018-06-04T03:59:30.485Z,604
2018-06-04T04:00:13.681Z,620
2018-06-04T04:00:54.304Z,636
2018-06-04T04:01:34.661Z,656
2018-06-04T04:02:15.080Z,676
2018-06-04T04:42:32.669Z,5496
2018-06-04T04:43:13.095Z,5728
2018-06-04T04:43:53.473Z,5796
2018-06-04T04:44:33.887Z,6096
2018-06-04T04:45:14.299Z,6092
2018-06-04T04:45:54.766Z,6260
2018-06-04T04:46:35.151Z,6348
2018-06-04T04:47:15.546Z,6572
2018-06-04T04:47:55.984Z,7008
2018-06-04T04:48:36.417Z,7204
2018-06-04T04:49:16.829Z,7472
2018-06-04T04:49:57.220Z,6928
2018-06-04T04:50:37.610Z,6280
2018-06-04T04:51:18.043Z,5888
2018-06-04T04:51:58.438Z,5892
2018-06-04T04:52:38.833Z,5548
2018-06-04T04:53:19.252Z,5204
2018-06-04T04:53:59.646Z,5296
2018-06-04T04:54:40.045Z,5860
2018-06-04T04:55:20.460Z,6432
2018-06-04T04:56:00.896Z,6988
2018-06-04T04:56:41.287Z,7288
2018-06-04T04:57:21.788Z,7196
2018-06-04T04:58:03.087Z,6820
2018-06-04T04:58:44.573Z,6260
2018-06-04T05:01:14.634Z,5756
2018-06-04T05:01:55.093Z,6868
2018-06-04T05:02:36.524Z,7612
2018-06-04T05:03:18.114Z,7184
2018-06-04T05:03:58.949Z,7668
2018-06-04T05:04:39.503Z,7948
2018-06-04T05:05:19.897Z,8160
2018-06-04T05:06:00.707Z,8192
2018-06-04T05:06:42.745Z,8748
2018-06-04T05:07:23.703Z,9816
2018-06-04T05:08:03.837Z,10424
2018-06-04T05:08:44.041Z,10384
2018-06-04T05:09:24.420Z,11148
2018-06-04T05:10:04.870Z,11968
2018-06-04T05:10:45.281Z,13472
2018-06-04T05:11:25.663Z,13632
2018-06-04T05:12:06.109Z,13536
2018-06-04T05:12:46.522Z,12416
2018-06-04T05:13:26.981Z,9800
2018-06-04T05:14:07.326Z,9660
2018-06-04T05:14:47.783Z,9572
2018-06-04T05:15:28.212Z,9316
2018-06-04T05:16:08.619Z,10136
2018-06-04T05:16:48.980Z,11300
2018-06-04T05:17:29.403Z,12256
2018-06-04T05:18:09.865Z,12864
2018-06-04T05:18:50.301Z,13600
2018-06-04T05:19:30.692Z,13600
2018-06-04T05:20:11.092Z,14528
2018-06-04T05:20:51.577Z,14752
2018-06-04T05:21:31.967Z,15008
2018-06-04T05:22:12.373Z,15264
2018-06-04T05:22:52.803Z,16288
2018-06-04T05:23:33.188Z,17376
2018-06-04T05:24:13.617Z,18272
2018-06-04T05:24:54.029Z,18688
2018-06-04T05:25:34.427Z,18560
2018-06-04T05:26:14.877Z,18528
2018-06-04T05:26:55.219Z,18624
2018-06-04T05:27:35.625Z,18720
2018-06-04T05:28:16.081Z,18656
2018-06-04T05:28:56.499Z,18720
2018-06-04T05:29:36.911Z,18656
2018-06-04T05:30:17.359Z,18912
2018-06-04T05:30:57.714Z,19616
2018-06-04T05:31:38.128Z,19872
2018-06-04T05:32:18.505Z,19936
2018-06-04T05:32:58.921Z,19456
2018-06-04T05:33:39.286Z,20384
2018-06-04T05:34:19.719Z,20768
2018-06-04T05:35:00.170Z,20928
2018-06-04T05:35:40.574Z,21600
2018-06-04T05:36:20.925Z,21888
2018-06-04T05:37:01.390Z,21824
2018-06-04T05:37:41.754Z,21984
2018-06-04T05:38:22.215Z,22336
2018-06-04T05:39:02.619Z,22912
2018-06-04T05:39:43.021Z,23488
2018-06-04T05:40:23.441Z,24832
2018-06-04T05:41:03.810Z,24416
2018-06-04T05:41:44.223Z,24256
2018-06-04T05:42:24.691Z,24384
2018-06-04T05:43:05.077Z,24544
2018-06-04T05:43:45.465Z,24032
2018-06-04T05:44:25.907Z,24480
2018-06-04T05:45:06.289Z,23808
2018-06-04T05:45:46.703Z,23680
2018-06-04T05:46:27.162Z,23936
2018-06-04T05:47:07.788Z,23936
2018-06-04T05:47:48.254Z,25088
2018-06-04T05:48:28.736Z,25504
2018-06-04T05:49:09.165Z,25408
2018-06-04T05:49:49.613Z,25568
2018-06-04T05:50:30.111Z,26496
2018-06-04T05:51:10.525Z,27168
2018-06-04T05:51:50.907Z,26752
2018-06-04T05:52:31.363Z,25568
2018-06-04T05:53:11.738Z,24512
2018-06-04T05:53:52.157Z,25920
2018-06-04T05:54:32.589Z,28096
2018-06-04T05:55:13.013Z,28992
2018-06-04T05:55:53.461Z,29216
2018-06-04T05:56:33.875Z,29056
2018-06-04T05:57:14.256Z,29664
2018-06-04T05:57:54.678Z,30464
2018-06-04T05:58:35.112Z,30944
2018-06-04T05:59:15.529Z,30432
2018-06-04T05:59:55.993Z,31136
2018-06-04T06:00:36.400Z,32704
2018-06-04T06:01:16.842Z,33120
2018-06-04T06:01:57.280Z,33408
2018-06-04T06:02:37.727Z,33504
2018-06-04T06:03:18.156Z,33216
2018-06-04T06:03:58.571Z,33152
2018-06-04T06:04:39.090Z,33440
2018-06-04T06:05:19.442Z,33152
2018-06-04T06:05:59.837Z,33760
2018-06-04T06:06:40.271Z,33888
2018-06-04T06:07:20.662Z,34912
2018-06-04T06:08:01.114Z,34656
2018-06-04T06:08:41.705Z,35136
2018-06-04T06:09:22.021Z,35776
2018-06-04T06:11:57.220Z,36864
2018-06-04T06:12:37.643Z,37504
2018-06-04T06:13:18.032Z,38752
2018-06-04T06:13:58.497Z,39072
2018-06-04T06:14:38.922Z,41632
2018-06-04T06:15:19.329Z,42144
2018-06-04T06:15:59.747Z,43584
2018-06-04T06:16:40.178Z,42496
2018-06-04T06:17:20.574Z,40832
2018-06-04T06:18:00.992Z,40192
2018-06-04T06:18:41.428Z,40960
2018-06-04T06:19:22.022Z,40192
2018-06-04T06:20:02.520Z,37888
2018-06-04T06:20:42.912Z,36480
2018-06-04T06:21:23.885Z,36832
2018-06-04T06:22:04.101Z,40096
2018-06-04T06:22:44.459Z,27008
2018-06-04T06:23:25.968Z,25152
2018-06-04T06:24:06.364Z,36096
2018-06-04T06:24:47.060Z,30304
2018-06-04T06:25:27.551Z,28096
2018-06-04T06:26:07.888Z,26752
2018-06-04T06:26:48.343Z,26624
2018-06-04T06:27:28.823Z,26944
2018-06-04T06:28:09.256Z,27552
2018-06-04T06:28:49.665Z,27584
2018-06-04T06:29:30.171Z,26720
2018-06-04T06:30:10.621Z,26496
2018-06-04T06:30:56.453Z,25536
2018-06-04T06:31:36.264Z,27360
2018-06-04T06:32:21.452Z,29344
2018-06-04T06:33:05.706Z,31520
2018-06-04T06:33:46.200Z,31776
2018-06-04T06:34:27.442Z,31808
2018-06-04T06:35:37.124Z,31648
2018-06-04T06:40:37.268Z,24192
2018-06-04T06:44:51.834Z,27072
2018-06-04T06:47:34.814Z,23456
2018-06-04T06:48:16.464Z,22976
2018-06-04T06:48:57.615Z,22848
2018-06-04T06:49:37.398Z,22976
2018-06-04T06:50:18.018Z,23200
2018-06-04T06:50:59.764Z,23648
2018-06-04T06:51:39.391Z,23904
2018-06-04T06:52:20.016Z,24576
2018-06-04T06:53:01.599Z,26400
2018-06-04T06:53:41.799Z,30272
2018-06-04T06:54:23.598Z,33792
2018-06-04T06:55:03.596Z,36416
2018-06-04T06:55:44.256Z,33696
2018-06-04T06:56:24.625Z,31552
2018-06-04T06:57:05.033Z,36608
2018-06-04T06:57:45.483Z,33728
2018-06-04T07:00:13.731Z,32800
2018-06-04T07:00:54.111Z,34496
2018-06-04T07:01:34.885Z,35104
2018-06-04T07:02:15.018Z,33984
2018-06-04T07:02:55.483Z,32608
2018-06-04T07:03:36.786Z,32544
2018-06-04T07:04:16.829Z,33600
2018-06-04T07:04:57.544Z,34784
2018-06-04T07:05:38.375Z,37952
2018-06-04T07:06:18.808Z,36896
2018-06-04T07:06:59.207Z,34912
2018-06-04T07:07:39.790Z,33600
2018-06-04T07:08:20.272Z,34400
2018-06-04T07:09:00.741Z,39552
2018-06-04T07:09:41.996Z,41312
2018-06-04T07:10:21.913Z,42496
2018-06-04T07:11:02.734Z,43648
2018-06-04T07:11:43.791Z,43488
2018-06-04T07:12:23.844Z,42464
2018-06-04T07:13:04.364Z,40672
2018-06-04T07:13:44.864Z,40672
2018-06-04T07:14:25.834Z,31904
2018-06-04T07:15:06.051Z,21824
2018-06-04T07:15:46.420Z,15588
2018-06-04T07:16:26.881Z,14224
2018-06-04T07:17:07.314Z,13504
2018-06-04T07:17:47.751Z,12888
2018-06-04T07:18:28.150Z,12484
2018-06-04T07:19:08.585Z,12048
2018-06-04T07:19:48.989Z,11624
2018-06-04T07:20:29.453Z,11372
2018-06-04T07:21:09.883Z,11148
2018-06-04T07:21:50.336Z,10884
2018-06-04T07:22:30.736Z,10648
2018-06-04T07:23:11.131Z,10420
2018-06-04T07:23:51.577Z,10216
2018-06-04T07:24:32.039Z,9908
2018-06-04T07:25:12.387Z,9696
2018-06-04T07:25:52.842Z,9516
2018-06-04T07:26:33.804Z,9392
2018-06-04T07:27:14.314Z,9268
2018-06-04T07:27:54.349Z,9192
2018-06-04T07:28:34.756Z,9144
2018-06-04T07:29:15.268Z,8960
2018-06-04T07:29:55.854Z,8872
2018-06-04T07:30:36.262Z,8752
2018-06-04T07:31:18.048Z,8640
2018-06-04T07:31:57.596Z,8432
2018-06-04T07:32:38.070Z,8320
2018-06-04T07:33:18.523Z,8244
2018-06-04T07:33:58.964Z,8240
2018-06-04T07:34:39.379Z,8052
2018-06-04T07:35:19.795Z,7932
2018-06-04T07:36:00.237Z,7872
2018-06-04T07:36:40.655Z,7584
2018-06-04T07:37:21.086Z,7256
2018-06-04T07:38:01.513Z,6812
2018-06-04T07:38:41.969Z,6636
2018-06-04T07:39:22.457Z,6340
2018-06-04T07:40:02.904Z,6508
2018-06-04T07:40:43.323Z,6564
2018-06-04T07:41:23.798Z,6604
2018-06-04T07:42:04.249Z,6580
2018-06-04T07:42:44.807Z,6536
2018-06-04T07:43:25.199Z,6488
2018-06-04T07:44:05.611Z,6432
2018-06-04T07:44:46.067Z,6404
2018-06-04T07:45:26.487Z,6372
2018-06-04T07:46:06.944Z,6340
2018-06-04T07:46:47.356Z,6284
2018-06-04T07:47:27.847Z,6256
2018-06-04T07:48:08.362Z,6224
2018-06-04T07:48:48.835Z,6192
2018-06-04T07:49:29.244Z,6172
2018-06-04T07:50:09.674Z,6152
2018-06-04T07:50:50.143Z,6044
2018-06-04T07:51:30.584Z,5916
2018-06-04T07:52:11.009Z,5876
2018-06-04T07:52:51.414Z,5876
2018-06-04T07:53:31.814Z,5828
2018-06-04T07:54:12.295Z,5784
2018-06-04T07:54:52.733Z,5732
2018-06-04T07:55:33.154Z,5676
2018-06-04T07:56:13.660Z,5636
2018-06-04T07:56:54.119Z,5576
2018-06-04T07:57:34.481Z,5552
2018-06-04T07:58:14.953Z,5520
2018-06-04T07:58:55.328Z,5484
2018-06-04T07:59:35.734Z,5444
2018-06-04T08:00:16.202Z,5408
2018-06-04T08:00:56.628Z,5372
2018-06-04T08:01:37.077Z,5352
2018-06-04T08:02:17.547Z,5300
2018-06-04T08:02:58.012Z,5276
2018-06-04T08:03:38.387Z,5248
2018-06-04T08:04:18.937Z,5212
2018-06-04T08:04:59.328Z,5172
2018-06-04T08:05:40.832Z,5132
2018-06-04T08:06:20.539Z,5144
2018-06-04T08:07:00.949Z,5160
2018-06-04T08:07:41.469Z,5164
2018-06-04T08:08:22.237Z,5136
2018-06-04T08:09:02.728Z,5096
2018-06-04T08:09:43.140Z,5104
2018-06-04T08:10:23.707Z,5080
2018-06-04T08:11:04.111Z,5068
2018-06-04T08:11:45.090Z,5048
2018-06-04T08:12:26.317Z,5000
2018-06-04T08:13:06.165Z,4896
2018-06-04T08:13:47.316Z,4804
2018-06-04T08:14:27.726Z,4788
2018-06-04T08:15:08.130Z,4696
2018-06-04T08:15:49.104Z,4632
2018-06-04T08:16:29.303Z,4596
2018-06-04T08:17:10.837Z,4616
2018-06-04T08:17:51.335Z,4692
2018-06-04T08:18:31.829Z,4696
2018-06-04T08:19:12.222Z,4572
2018-06-04T08:19:52.621Z,4292
2018-06-04T08:20:33.353Z,4448
2018-06-04T08:21:13.875Z,4452
2018-06-04T08:21:55.026Z,4592
2018-06-04T08:22:35.449Z,4636
2018-06-04T08:23:15.922Z,4648
2018-06-04T08:23:56.371Z,4652
2018-06-04T08:24:36.793Z,4648
2018-06-04T08:25:17.274Z,4616
2018-06-04T08:25:57.714Z,4572
2018-06-04T08:26:38.115Z,4524
2018-06-04T08:27:18.652Z,4492
2018-06-04T08:27:59.104Z,4452
2018-06-04T08:28:39.530Z,4432
2018-06-04T08:29:20.041Z,4356
2018-06-04T08:30:00.399Z,4260
2018-06-04T08:30:40.865Z,4224
2018-06-04T08:31:21.330Z,4240
2018-06-04T08:32:01.749Z,4240
2018-06-04T08:32:42.207Z,4256
2018-06-04T08:33:22.663Z,4240
2018-06-04T08:34:03.097Z,4276
2018-06-04T08:34:43.539Z,4288
2018-06-04T08:35:24.027Z,4292
2018-06-04T08:36:04.484Z,4284
2018-06-04T08:36:44.923Z,4264
2018-06-04T08:37:25.373Z,4236
2018-06-04T08:38:06.581Z,4204
2018-06-04T08:38:46.366Z,4188
2018-06-04T08:39:26.833Z,4188
2018-06-04T08:40:07.542Z,4164
2018-06-04T08:40:48.161Z,4148
2018-06-04T08:41:28.665Z,4132
2018-06-04T08:42:09.100Z,4124
2018-06-04T08:42:49.549Z,4116
2018-06-04T08:43:29.967Z,4136
2018-06-04T08:44:10.392Z,4108
2018-06-04T08:44:50.925Z,4072
2018-06-04T08:45:31.397Z,4028
2018-06-04T08:46:11.806Z,4000
2018-06-04T08:46:52.266Z,3972
2018-06-04T08:47:39.537Z,3948
2018-06-04T08:49:42.208Z,3764
2018-06-04T08:50:21.926Z,3700
2018-06-04T08:51:02.517Z,3628
2018-06-04T08:51:43.049Z,3584
2018-06-04T08:52:23.644Z,3508
2018-06-04T08:53:04.100Z,3508
2018-06-04T08:53:44.587Z,3532
2018-06-04T08:54:25.122Z,3508
2018-06-04T08:55:05.549Z,3540
2018-06-04T08:55:45.996Z,3536
2018-06-04T08:56:26.977Z,3556
2018-06-04T08:57:07.028Z,3580
2018-06-04T08:57:47.504Z,3584
2018-06-04T08:58:27.951Z,3592
2018-06-04T08:59:08.413Z,3588
2018-06-04T08:59:49.536Z,3584
2018-06-04T09:00:29.605Z,3564
2018-06-04T09:01:10.168Z,3540
2018-06-04T09:01:50.890Z,3508
2018-06-04T09:02:31.829Z,3492
2018-06-04T09:03:13.513Z,3488
2018-06-04T09:03:54.071Z,3476
2018-06-04T09:04:34.467Z,3468
2018-06-04T09:05:14.877Z,3448
2018-06-04T09:05:55.484Z,3428
2018-06-04T09:06:36.977Z,3404
2018-06-04T09:07:16.946Z,3404
2018-06-04T09:07:57.555Z,3392
2018-06-04T09:08:37.982Z,3348
2018-06-04T09:09:18.452Z,3356
2018-06-04T09:09:58.960Z,3336
2018-06-04T09:10:39.558Z,3336
2018-06-04T09:11:20.101Z,3328
2018-06-04T09:12:00.566Z,3300
2018-06-04T09:12:40.993Z,3300
2018-06-04T09:13:21.789Z,3280
2018-06-04T09:14:02.190Z,3264
2018-06-04T09:14:42.639Z,3216
2018-06-04T09:15:23.073Z,3148
2018-06-04T09:16:03.568Z,2968
2018-06-04T09:16:44.057Z,3108
2018-06-04T09:17:27.354Z,3060
2018-06-04T09:18:07.821Z,3096
2018-06-04T09:18:48.378Z,3172
2018-06-04T09:19:28.836Z,3160
2018-06-04T09:20:09.456Z,3180
2018-06-04T09:20:49.881Z,3160
2018-06-04T09:21:30.344Z,3104
2018-06-04T09:22:10.789Z,3084
2018-06-04T09:22:51.249Z,2992
2018-06-04T09:23:31.907Z,2984
2018-06-04T09:24:12.380Z,3000
2018-06-04T09:24:53.082Z,2968
2018-06-04T09:25:33.376Z,2952
2018-06-04T09:26:13.830Z,2956
2018-06-04T09:26:54.369Z,2984
2018-06-04T09:27:34.926Z,2952
2018-06-04T09:28:15.585Z,2924
2018-06-04T09:28:56.154Z,2896
2018-06-04T09:29:36.651Z,2872
2018-06-04T09:30:18.065Z,2840
2018-06-04T09:30:57.899Z,2832
2018-06-04T09:31:38.400Z,2844
2018-06-04T09:32:18.826Z,2852
2018-06-04T09:32:59.249Z,2880
2018-06-04T09:33:39.758Z,2884
2018-06-04T09:34:20.146Z,2884
2018-06-04T09:35:00.745Z,2900
2018-06-04T09:35:41.169Z,2892
2018-06-04T09:36:21.571Z,2884
2018-06-04T09:37:02.018Z,2836
2018-06-04T09:37:42.453Z,2820
2018-06-04T09:38:23.001Z,2764
2018-06-04T09:39:03.462Z,2772
2018-06-04T09:39:43.945Z,2768
2018-06-04T09:40:24.378Z,2764
2018-06-04T09:41:04.933Z,2724
2018-06-04T09:41:45.445Z,2668
2018-06-04T09:42:25.871Z,2632
2018-06-04T09:43:06.315Z,2644
2018-06-04T09:43:46.785Z,2648
2018-06-04T09:44:27.184Z,2628
2018-06-04T09:45:07.635Z,2656
2018-06-04T09:45:48.056Z,2612
2018-06-04T09:46:28.480Z,2632
2018-06-04T09:47:08.905Z,2628
2018-06-04T09:47:49.354Z,2624
2018-06-04T09:50:07.800Z,2576
2018-06-04T09:50:48.234Z,2556
2018-06-04T09:51:28.594Z,2480
2018-06-04T09:52:09.044Z,2572
2018-06-04T09:52:49.467Z,2572
2018-06-04T09:53:29.894Z,2472
2018-06-04T09:54:10.330Z,2376
2018-06-04T09:54:50.819Z,2396
2018-06-04T09:55:31.307Z,2412
2018-06-04T09:56:12.828Z,2456
2018-06-04T09:56:52.695Z,2464
2018-06-04T09:57:33.182Z,2460
2018-06-04T09:58:13.712Z,2408
2018-06-04T09:58:54.155Z,2364
2018-06-04T09:59:34.875Z,2256
2018-06-04T10:00:15.486Z,2356
2018-06-04T10:00:56.250Z,2428
2018-06-04T10:01:37.918Z,2472
2018-06-04T10:02:18.297Z,2492
2018-06-04T10:02:58.590Z,2520
2018-06-04T10:03:39.401Z,2540
2018-06-04T10:43:10.685Z,2244
2018-06-04T10:43:52.062Z,2244
2018-06-04T10:44:32.047Z,2228
2018-06-04T10:49:12.475Z,2116
2018-06-04T10:49:54.628Z,2104
2018-06-04T10:54:19.561Z,1944
2018-06-04T10:55:00.719Z,1972
2018-06-04T10:55:41.564Z,1956
2018-06-04T10:56:21.644Z,1956
2018-06-04T10:57:02.897Z,2032
2018-06-04T10:57:44.018Z,2076
2018-06-04T10:58:24.635Z,2076
2018-06-04T10:59:05.286Z,2080
2018-06-04T10:59:45.797Z,2092
2018-06-04T11:00:26.860Z,2076
2018-06-04T11:01:08.072Z,2092
2018-06-04T11:01:49.019Z,2076
2018-06-04T11:02:29.669Z,2096
2018-06-04T11:03:10.562Z,2096
2018-06-04T11:03:52.221Z,2108
2018-06-04T11:04:32.337Z,2156
2018-06-04T11:05:13.651Z,2172
2018-06-04T11:05:55.562Z,2148
2018-06-04T11:06:35.598Z,2128
2018-06-04T11:07:17.265Z,2080
2018-06-04T11:07:57.519Z,2052
2018-06-04T11:08:38.214Z,2032
2018-06-04T11:09:19.162Z,2012
2018-06-04T11:10:01.170Z,1864
2018-06-04T11:10:41.855Z,1612
2018-06-04T11:11:22.458Z,2004
2018-06-04T11:12:03.098Z,1960
2018-06-04T11:12:43.690Z,1932
2018-06-04T11:13:24.294Z,1960
2018-06-04T11:14:04.742Z,1936
2018-06-04T11:14:45.315Z,1488
2018-06-04T11:15:25.752Z,1416
2018-06-04T11:16:06.452Z,1444
2018-06-04T11:16:46.937Z,1476
2018-06-04T11:17:27.419Z,1504
2018-06-04T11:18:07.889Z,1552
2018-06-04T11:18:48.415Z,1884
2018-06-04T11:19:28.891Z,2212
2018-06-04T11:20:10.585Z,2276
2018-06-04T11:22:32.736Z,2272
2018-06-04T11:23:13.612Z,2276
2018-06-04T11:23:54.191Z,2312
2018-06-04T11:24:34.799Z,2280
2018-06-04T11:25:15.228Z,2296
2018-06-04T11:25:55.770Z,2256
2018-06-04T11:26:36.160Z,2292
2018-06-04T11:27:16.726Z,1968
2018-06-04T11:29:30.837Z,1856
2018-06-04T11:30:11.307Z,1576
2018-06-04T11:30:51.637Z,1444
2018-06-04T11:31:32.821Z,1896
2018-06-04T11:32:12.891Z,1972
2018-06-04T11:35:45.346Z,2012
2018-06-04T11:36:25.784Z,1996
2018-06-04T11:37:06.202Z,2000
2018-06-04T11:37:46.644Z,2024
2018-06-04T11:38:27.112Z,1824
2018-06-04T11:39:07.619Z,1988
2018-06-04T11:39:48.018Z,1844
2018-06-04T11:40:28.448Z,1532
2018-06-04T11:41:09.752Z,1464
2018-06-04T11:41:49.633Z,1548
2018-06-04T11:42:30.008Z,1904
2018-06-04T11:43:10.522Z,1996
2018-06-04T11:43:51.814Z,2024
2018-06-04T11:44:32.218Z,2056
2018-06-04T11:45:13.946Z,2120
2018-06-04T11:45:55.233Z,2192
2018-06-04T11:46:35.316Z,2256